Time;durP1;ratioP1;P1;durP2;ratioP2;P2;SDS_P1;SDS_P2;PMS_P1;PMS_P2;Temp;Humidity;BMP_temperature;BMP_pressure;BME280_temperature;BME280_humidity;BME280_pressure;Samples;Min_cycle;Max_cycle;Signal;HPM_P1;HPM_P2
2022/02/09 00:02:33;;;;;;;;;;;;;;;-144.99;100.00;52562.25;5029280;28;20345;-66
2022/02/09 00:05:14;;;;;;;;;;;;;;;-144.99;100.00;52566.31;5028518;28;19937;-66
2022/02/09 00:07:48;;;;;;;;;;;;;;;-144.99;100.00;52554.09;5022450;28;20012;-67
2022/02/09 00:10:14;;;;;;;;;;;;;;;-144.99;100.00;52572.44;5024360;28;20645;-66
2022/02/09 00:12:46;;;;;;;;;;;;;;;-144.99;100.00;52590.78;5029334;28;19925;-65
2022/02/09 00:15:26;;;;;;;;;;;;;;;-144.99;100.00;52594.84;4681602;28;9999635;-66
2022/02/09 00:18:03;;;;;;;;;;;;;;;-144.99;100.00;52554.09;5029468;28;19925;-65
2022/02/09 00:21:04;;;;;;;;;;;;;;;-144.99;100.00;52521.47;5014984;28;20007;-65
2022/02/09 00:23:55;;;;;;;;;;;;;;;-144.99;100.00;52545.94;5010948;28;20414;-65
2022/02/09 00:32:31;;;;;;;;;;;;;;;-144.99;100.00;52558.16;5149921;27;19911;-67
2022/02/09 00:35:28;;;;;;;;;;;;;;;-144.99;100.00;52596.88;5128638;28;19928;-68
2022/02/09 00:43:43;;;;;;;;;;;;;;;-144.99;100.00;52556.13;5107718;28;19966;-67
2022/02/09 01:11:16;;;;;;;;;;;;;;;-144.99;100.00;52529.63;5102747;27;20434;-67
2022/02/09 01:38:48;;;;;;;;;;;;;;;-144.99;100.00;52562.25;5128538;28;19977;-66
2022/02/09 01:50:59;;;;;;;;;;;;;;;-144.99;100.00;52574.47;5113125;28;20555;-67
2022/02/09 01:55:37;;;;;;;;;;;;;;;-144.99;100.00;52574.47;5105934;28;20063;-68
2022/02/09 01:58:04;;;;;;;;;;;;;;;-144.99;100.00;52554.09;5119695;28;19985;-67
2022/02/09 02:00:31;;;;;;;;;;;;;;;-144.99;100.00;52598.94;5113374;28;19962;-67
2022/02/09 02:02:57;;;;;;;;;;;;;;;-144.99;100.00;52605.03;5113857;28;20439;-68
2022/02/09 02:05:23;;;;;;;;;;;;;;;-144.99;100.00;52580.59;5113512;28;19945;-67
2022/02/09 02:07:52;;;;;;;;;;;;;;;-144.99;100.00;52572.44;5104414;28;20412;-67
2022/02/09 02:10:26;;;;;;;;;;;;;;;-144.99;100.00;52550.00;5109496;28;19962;-67
2022/02/09 02:13:05;;;;;;;;;;;;;;;-144.99;100.00;52574.47;5113717;28;20020;-66
2022/02/09 02:16:06;;;;;;;;;;;;;;;-144.99;100.00;52603.00;5113438;28;19946;-67
2022/02/09 02:18:34;;;;;;;;;;;;;;;-144.99;100.00;52574.47;5113747;28;19946;-68
2022/02/09 02:21:12;;;;;;;;;;;;;;;-144.99;100.00;52545.94;5111138;28;19976;-70
2022/02/09 02:24:02;;;;;;;;;;;;;;;-144.99;100.00;52590.78;5112297;27;20010;-70
2022/02/09 02:26:42;;;;;;;;;;;;;;;-144.99;100.00;52590.78;5113291;28;19951;-67
2022/02/09 02:29:26;;;;;;;;;;;;;;;-144.99;100.00;52590.78;5113541;28;19972;-66
2022/02/09 02:57:25;;;;;;;;;;;;;;;-144.99;100.00;52586.69;5108523;28;19931;-66
2022/02/09 03:08:33;;;;;;;;;;;;;;;-144.99;100.00;52574.47;5096477;28;19949;-65
2022/02/09 03:13:52;;;;;;;;;;;;;;;-144.99;100.00;52550.00;5107370;28;20380;-65
2022/02/09 03:16:27;;;;;;;;;;;;;;;-144.99;100.00;52550.00;5107775;28;19949;-65
2022/02/09 03:19:27;;;;;;;;;;;;;;;-144.99;100.00;52603.00;5107969;28;19955;-65
2022/02/09 03:22:11;;;;;;;;;;;;;;;-144.99;100.00;52590.78;5106724;28;19954;-68
2022/02/09 03:24:57;;;;;;;;;;;;;;;-144.99;100.00;52541.84;5109570;28;19974;-68
2022/02/09 03:27:41;;;;;;;;;;;;;;;-144.99;100.00;52554.09;5118487;27;19985;-68
2022/02/09 03:46:44;;;;;;;;;;;;;;;-144.99;100.00;52550.00;5107642;28;19936;-67
2022/02/09 03:49:27;;;;;;;;;;;;;;;-144.99;100.00;52562.25;5109947;28;19949;-67
2022/02/09 03:52:03;;;;;;;;;;;;;;;-144.99;100.00;52590.78;5111465;28;19934;-68
2022/02/09 03:54:35;;;;;;;;;;;;;;;-144.99;100.00;52550.00;5110227;28;20028;-68
2022/02/09 03:57:10;;;;;;;;;;;;;;;-144.99;100.00;52598.94;5111605;28;20011;-63
2022/02/09 03:59:36;;;;;;;;;;;;;;;-144.99;100.00;52570.38;5110593;28;19951;-64
2022/02/09 04:02:05;;;;;;;;;;;;;;;-144.99;100.00;52578.53;5110796;28;19987;-63
2022/02/09 04:04:32;;;;;;;;;;;;;;;-144.99;100.00;52578.53;5107053;28;20420;-63
2022/02/09 04:06:58;;;;;;;;;;;;;;;-144.99;100.00;52603.00;5095107;28;19954;-63
2022/02/09 04:09:29;;;;;;;;;;;;;;;-144.99;100.00;52566.31;5096851;28;19945;-63
2022/02/09 04:12:03;;;;;;;;;;;;;;;-144.99;100.00;52603.00;5118047;28;19991;-64
2022/02/09 04:14:40;;;;;;;;;;;;;;;-144.99;100.00;52554.09;5124697;28;19971;-64
2022/02/09 04:17:18;;;;;;;;;;;;;;;-144.99;100.00;52586.69;5118706;28;19997;-65
2022/02/09 04:20:04;;;;;;;;;;;;;;;-144.99;100.00;52550.00;5112358;27;19992;-65
2022/02/09 04:23:16;;;;;;;;;;;;;;;-144.99;100.00;52582.63;5105793;28;19945;-69
2022/02/09 04:36:34;;;;;;;;;;;;;;;-144.99;100.00;52568.34;5104992;28;19945;-69
2022/02/09 04:39:08;;;;;;;;;;;;;;;-144.99;100.00;52590.78;5090357;28;19939;-69
2022/02/09 04:41:56;;;;;;;;;;;;;;;-144.99;100.00;52550.00;5089047;22;19960;-63
2022/02/09 04:44:38;;;;;;;;;;;;;;;-144.99;100.00;52578.53;5048225;28;19956;-63
2022/02/09 04:47:32;;;;;;;;;;;;;;;-144.99;100.00;52578.53;5051409;28;19942;-63
2022/02/09 04:50:11;;;;;;;;;;;;;;;-144.99;100.00;52562.25;5039484;28;19945;-64
2022/02/09 04:52:54;;;;;;;;;;;;;;;-144.99;100.00;52566.31;5050788;28;19924;-63
2022/02/09 04:55:46;;;;;;;;;;;;;;;-144.99;100.00;52566.31;5051151;28;20043;-63
2022/02/09 04:58:22;;;;;;;;;;;;;;;-144.99;100.00;52582.63;5050431;28;19954;-63
2022/02/09 05:00:56;;;;;;;;;;;;;;;-144.99;100.00;52547.97;5050712;28;20041;-62
2022/02/09 05:25:48;;;;;;;;;;;;;;;-144.99;100.00;52582.63;4988495;28;20032;-63
2022/02/09 05:28:16;;;;;;;;;;;;;;;-144.99;100.00;52578.53;5028528;28;20039;-62
2022/02/09 05:30:47;;;;;;;;;;;;;;;-144.99;100.00;52600.97;5050098;28;19944;-61
2022/02/09 05:33:14;;;;;;;;;;;;;;;-144.99;100.00;52554.09;5049800;28;19964;-62
2022/02/09 05:35:43;;;;;;;;;;;;;;;-144.99;100.00;52568.34;5049543;28;20040;-61
2022/02/09 05:38:09;;;;;;;;;;;;;;;-144.99;100.00;52598.94;5050221;28;19947;-62
2022/02/09 05:40:36;;;;;;;;;;;;;;;-144.99;100.00;52562.25;5050070;28;20338;-61
2022/02/09 05:43:04;;;;;;;;;;;;;;;-144.99;100.00;52566.31;5049708;28;20436;-60
2022/02/09 05:45:42;;;;;;;;;;;;;;;-144.99;100.00;52550.00;5049411;28;19929;-62
2022/02/09 05:49:02;;;;;;;;;;;;;;;-144.99;100.00;52603.00;5047518;28;19951;-64
2022/02/09 05:51:22;;;;;;;;;;;;;;;-144.99;100.00;52550.00;5048172;28;20415;-61
2022/02/09 05:54:02;;;;;;;;;;;;;;;-144.99;100.00;52566.31;5049567;28;19977;-63
2022/02/09 05:56:36;;;;;;;;;;;;;;;-144.99;100.00;52594.84;5049861;28;19948;-63
2022/02/09 05:59:06;;;;;;;;;;;;;;;-144.99;100.00;52578.53;5049755;28;19960;-63
2022/02/09 06:01:33;;;;;;;;;;;;;;;-144.99;100.00;52588.75;5049663;28;19970;-63
2022/02/09 06:04:02;;;;;;;;;;;;;;;-144.99;100.00;52562.25;5049528;28;19965;-64
2022/02/09 06:06:30;;;;;;;;;;;;;;;-144.99;100.00;52586.69;5049630;28;19951;-62
2022/02/09 06:08:57;;;;;;;;;;;;;;;-144.99;100.00;52598.94;5048932;28;20002;-61
2022/02/09 06:11:27;;;;;;;;;;;;;;;-144.99;100.00;52578.53;5049348;28;19994;-61
2022/02/09 06:14:17;;;;;;;;;;;;;;;-144.99;100.00;52574.47;5049329;28;20365;-61
2022/02/09 06:22:30;;;;;;;;;;;;;;;-144.99;100.00;52582.63;4982106;28;10000262;-63
2022/02/09 06:24:57;;;;;;;;;;;;;;;-144.99;100.00;52588.75;5042755;28;19971;-62
2022/02/09 06:27:23;;;;;;;;;;;;;;;-144.99;100.00;52562.25;5046842;28;19949;-63
2022/02/09 06:29:50;;;;;;;;;;;;;;;-144.99;100.00;52598.94;5046776;28;20048;-63
2022/02/09 06:32:17;;;;;;;;;;;;;;;-144.99;100.00;52570.38;5047337;28;19971;-63
2022/02/09 06:34:44;;;;;;;;;;;;;;;-144.99;100.00;52598.94;5046189;28;19975;-64
2022/02/09 06:37:17;;;;;;;;;;;;;;;-144.99;100.00;52582.63;5041357;28;19928;-63
2022/02/09 06:39:48;;;;;;;;;;;;;;;-144.99;100.00;52547.97;5046590;28;20183;-62
2022/02/09 06:42:22;;;;;;;;;;;;;;;-144.99;100.00;52594.84;5047199;28;19980;-65
2022/02/09 06:44:48;;;;;;;;;;;;;;;-144.99;100.00;52600.97;5046502;28;19958;-63
2022/02/09 06:47:17;;;;;;;;;;;;;;;-144.99;100.00;52586.69;5048349;28;20045;-62
2022/02/09 06:49:43;;;;;;;;;;;;;;;-144.99;100.00;52545.94;5048550;28;20012;-63
2022/02/09 06:52:10;;;;;;;;;;;;;;;-144.99;100.00;52598.94;5047960;28;20471;-63
2022/02/09 06:54:44;;;;;;;;;;;;;;;-144.99;100.00;52580.59;5048183;28;20101;-61
2022/02/09 06:57:28;;;;;;;;;;;;;;;-144.99;100.00;52550.00;5049226;28;19968;-61
2022/02/09 06:59:54;;;;;;;;;;;;;;;-144.99;100.00;52582.63;5048681;28;19970;-64
2022/02/09 07:02:21;;;;;;;;;;;;;;;-144.99;100.00;52574.47;5050341;28;20023;-63
2022/02/09 07:04:49;;;;;;;;;;;;;;;-144.99;100.00;52631.53;5049222;28;20387;-63
2022/02/09 07:07:17;;;;;;;;;;;;;;;-144.99;100.00;52578.53;5048999;28;19963;-61
2022/02/09 07:09:43;;;;;;;;;;;;;;;-144.99;100.00;52611.16;5046947;28;20317;-65
2022/02/09 07:12:10;;;;;;;;;;;;;;;-144.99;100.00;52578.53;5050868;28;19969;-64
2022/02/09 07:14:38;;;;;;;;;;;;;;;-144.99;100.00;52598.94;5047980;28;20227;-61
2022/02/09 07:17:05;;;;;;;;;;;;;;;-144.99;100.00;52570.38;5049184;28;20020;-65
2022/02/09 07:19:33;;;;;;;;;;;;;;;-144.99;100.00;52578.53;5048818;28;19991;-63
2022/02/09 07:21:59;;;;;;;;;;;;;;;-144.99;100.00;52615.25;5051741;28;20028;-62
2022/02/09 07:24:26;;;;;;;;;;;;;;;-144.99;100.00;52586.69;5052317;28;19935;-62
2022/02/09 07:27:23;;;;;;;;;;;;;;;-144.99;100.00;52607.09;5052306;28;19946;-64
2022/02/09 07:29:50;;;;;;;;;;;;;;;-144.99;100.00;52598.94;5051550;28;20000;-63
2022/02/09 07:32:17;;;;;;;;;;;;;;;-144.99;100.00;52605.03;5051659;28;20009;-62
2022/02/09 07:34:43;;;;;;;;;;;;;;;-144.99;100.00;52550.00;5050943;28;19965;-62
2022/02/09 07:37:10;;;;;;;;;;;;;;;-144.99;100.00;52590.78;5051795;28;20004;-62
2022/02/09 07:39:38;;;;;;;;;;;;;;;-144.99;100.00;52554.09;5051387;28;20062;-62
2022/02/09 07:42:10;;;;;;;;;;;;;;;-144.99;100.00;52603.00;5050953;28;20053;-61
2022/02/09 07:44:51;;;;;;;;;;;;;;;-144.99;100.00;52570.38;5050315;28;19954;-61
2022/02/09 07:47:40;;;;;;;;;;;;;;;-144.99;100.00;52584.66;5045117;28;20035;-61
2022/02/09 07:50:33;;;;;;;;;;;;;;;-144.99;100.00;52594.84;5050510;28;20394;-63
2022/02/09 07:53:09;;;;;;;;;;;;;;;-144.99;100.00;52572.44;5036212;28;19960;-62
2022/02/09 07:55:35;;;;;;;;;;;;;;;-144.99;100.00;52594.84;5049736;28;19965;-64
2022/02/09 07:58:03;;;;;;;;;;;;;;;-144.99;100.00;52578.53;5049375;28;19972;-64
2022/02/09 08:00:29;;;;;;;;;;;;;;;-144.99;100.00;52623.38;5048973;28;20447;-62
2022/02/09 08:02:57;;;;;;;;;;;;;;;-144.99;100.00;52550.00;5049094;28;19981;-63
2022/02/09 08:05:24;;;;;;;;;;;;;;;-144.99;100.00;52545.94;5048551;28;19967;-62
2022/02/09 08:07:50;;;;;;;;;;;;;;;-144.99;100.00;52578.53;5049623;28;19966;-63
2022/02/09 08:10:23;;;;;;;;;;;;;;;-144.99;100.00;52562.25;5049295;28;19963;-61
2022/02/09 08:20:25;;;;;;;;;;;;;;;-144.99;100.00;52580.59;5048962;28;20105;-63
2022/02/09 08:27:19;;;;;;;;;;;;;;;-144.99;100.00;52594.84;5049214;28;19983;-63
2022/02/09 08:29:48;;;;;;;;;;;;;;;-144.99;100.00;52598.94;5048304;28;19947;-62
2022/02/09 08:32:39;;;;;;;;;;;;;;;-144.99;100.00;52586.69;5048510;28;19960;-65
2022/02/09 08:35:07;;;;;;;;;;;;;;;-144.99;100.00;52564.28;5048476;28;20042;-68
2022/02/09 08:37:33;;;;;;;;;;;;;;;-144.99;100.00;52605.03;5043033;28;19942;-70
2022/02/09 08:40:00;;;;;;;;;;;;;;;-144.99;100.00;52552.03;5048631;28;19955;-68
2022/02/09 08:42:26;;;;;;;;;;;;;;;-144.99;100.00;52570.38;5048616;28;19939;-68
2022/02/09 08:44:53;;;;;;;;;;;;;;;-144.99;100.00;52598.94;5047724;28;19928;-67
2022/02/09 08:47:20;;;;;;;;;;;;;;;-144.99;100.00;52568.34;5048494;28;20385;-67
2022/02/09 08:49:47;;;;;;;;;;;;;;;-144.99;100.00;52554.09;5034937;28;19965;-67
2022/02/09 08:52:15;;;;;;;;;;;;;;;-144.99;100.00;52574.47;5048716;28;19925;-69
2022/02/09 08:54:42;;;;;;;;;;;;;;;-144.99;100.00;52558.16;5048030;28;19974;-67
2022/02/09 08:57:11;;;;;;;;;;;;;;;-144.99;100.00;52566.31;5048230;28;19968;-66
2022/02/09 08:59:39;;;;;;;;;;;;;;;-144.99;100.00;52570.38;5048111;28;20017;-69
2022/02/09 09:02:09;;;;;;;;;;;;;;;-144.99;100.00;52619.31;5048502;28;19984;-67
2022/02/09 09:04:41;;;;;;;;;;;;;;;-144.99;100.00;52550.00;5048404;28;19984;-68
2022/02/09 09:07:14;;;;;;;;;;;;;;;-144.99;100.00;52582.63;5048410;28;20482;-68
2022/02/09 09:09:52;;;;;;;;;;;;;;;-144.99;100.00;52558.16;5047881;28;20005;-66
2022/02/09 10:02:07;;;;;;;;;;;;;;;-144.99;100.00;52552.03;5039897;28;19986;-67
2022/02/09 10:05:04;;;;;;;;;;;;;;;-144.99;100.00;52586.69;5046635;28;19998;-69
2022/02/09 10:33:00;;;;;;;;;;;;;;;-144.99;100.00;52613.19;5044949;28;20452;-67
2022/02/09 10:35:30;;;;;;;;;;;;;;;-144.99;100.00;52603.00;5047781;28;20084;-68
2022/02/09 10:38:01;;;;;;;;;;;;;;;-144.99;100.00;52570.38;5042063;28;20305;-69
2022/02/09 10:40:29;;;;;;;;;;;;;;;-144.99;100.00;52598.94;5043036;28;20436;-66
2022/02/09 10:43:00;;;;;;;;;;;;;;;-144.99;100.00;52598.94;5057067;22;20033;-70
2022/02/09 10:45:33;;;;;;;;;;;;;;;-144.99;100.00;52607.09;5018517;28;20432;-70
2022/02/09 10:48:01;;;;;;;;;;;;;;;-144.99;100.00;52580.59;5028752;28;19986;-70
2022/02/09 10:50:30;;;;;;;;;;;;;;;-144.99;100.00;52615.25;5028071;28;19982;-70
2022/02/09 10:52:59;;;;;;;;;;;;;;;-144.99;100.00;52594.84;5026332;28;19998;-70
2022/02/09 10:55:34;;;;;;;;;;;;;;;-144.99;100.00;52603.00;5005016;28;20042;-69
2022/02/09 10:58:01;;;;;;;;;;;;;;;-144.99;100.00;52578.53;5013245;28;19980;-69
2022/02/09 11:00:28;;;;;;;;;;;;;;;-144.99;100.00;52582.63;5028251;28;20383;-72
2022/02/09 11:02:55;;;;;;;;;;;;;;;-144.99;100.00;52574.47;5032663;28;20078;-70
2022/02/09 11:05:23;;;;;;;;;;;;;;;-144.99;100.00;52586.69;5028762;28;20009;-70
2022/02/09 11:07:49;;;;;;;;;;;;;;;-144.99;100.00;52574.47;5032810;28;19979;-70
2022/02/09 11:10:18;;;;;;;;;;;;;;;-144.99;100.00;52635.63;5030219;28;19975;-70
2022/02/09 11:12:45;;;;;;;;;;;;;;;-144.99;100.00;52598.94;5024673;28;19995;-71
2022/02/09 11:15:11;;;;;;;;;;;;;;;-144.99;100.00;52594.84;5009018;28;19998;-70
2022/02/09 11:17:39;;;;;;;;;;;;;;;-144.99;100.00;52607.09;5006740;28;20453;-71
2022/02/09 11:20:08;;;;;;;;;;;;;;;-144.99;100.00;52554.09;5011437;28;19983;-71
2022/02/09 11:22:40;;;;;;;;;;;;;;;-144.99;100.00;52627.47;5013823;28;20098;-69
2022/02/09 11:25:15;;;;;;;;;;;;;;;-144.99;100.00;52576.50;5017299;28;20429;-70
2022/02/09 11:27:49;;;;;;;;;;;;;;;-144.99;100.00;52598.94;5032594;28;20019;-70
2022/02/09 11:30:23;;;;;;;;;;;;;;;-144.99;100.00;52596.88;5024153;28;19977;-71
2022/02/09 11:33:02;;;;;;;;;;;;;;;-144.99;100.00;52594.84;4998440;28;19994;-69
2022/02/09 11:35:32;;;;;;;;;;;;;;;-144.99;100.00;52574.47;5011877;28;20003;-71
2022/02/09 11:41:01;;;;;;;;;;;;;;;-144.99;100.00;52552.03;5024449;28;20064;-69
2022/02/09 11:50:07;;;;;;;;;;;;;;;-144.99;100.00;52607.09;4994580;28;19975;-70
2022/02/09 11:54:35;;;;;;;;;;;;;;;-144.99;100.00;52558.16;5018523;28;20432;-70
2022/02/09 12:01:26;;;;;;;;;;;;;;;-144.99;100.00;52611.16;5012118;28;20455;-71
2022/02/09 12:09:55;;;;;;;;;;;;;;;-144.99;100.00;52603.00;5008005;28;19982;-70
2022/02/09 12:12:39;;;;;;;;;;;;;;;-144.99;100.00;52566.31;5012149;28;20086;-70
2022/02/09 12:15:14;;;;;;;;;;;;;;;-144.99;100.00;52570.38;5011245;28;19999;-69
2022/02/09 12:17:51;;;;;;;;;;;;;;;-144.99;100.00;52556.13;5007597;28;20082;-69
2022/02/09 12:20:22;;;;;;;;;;;;;;;-144.99;100.00;52611.16;5004945;28;20058;-67
2022/02/09 12:23:03;;;;;;;;;;;;;;;-144.99;100.00;52580.59;5023060;28;19996;-69
2022/02/09 12:25:37;;;;;;;;;;;;;;;-144.99;100.00;52564.28;5011601;28;20021;-70
2022/02/09 12:28:04;;;;;;;;;;;;;;;-144.99;100.00;52590.78;5006002;28;19978;-70
2022/02/09 12:30:31;;;;;;;;;;;;;;;-144.99;100.00;52603.00;5010301;28;19971;-69
2022/02/09 12:32:58;;;;;;;;;;;;;;;-144.99;100.00;52570.38;5012740;28;19991;-70
2022/02/09 12:35:24;;;;;;;;;;;;;;;-144.99;100.00;52594.84;5020050;28;19998;-71
2022/02/09 12:37:53;;;;;;;;;;;;;;;-144.99;100.00;52600.97;5011305;28;19975;-70
2022/02/09 12:40:20;;;;;;;;;;;;;;;-144.99;100.00;52564.28;5024064;28;19976;-69
2022/02/09 12:42:48;;;;;;;;;;;;;;;-144.99;100.00;52574.47;5017905;28;19996;-70
2022/02/09 12:45:15;;;;;;;;;;;;;;;-144.99;100.00;52578.53;5032042;28;20428;-70
2022/02/09 12:47:44;;;;;;;;;;;;;;;-144.99;100.00;52556.13;5026136;28;20234;-70
2022/02/09 12:50:12;;;;;;;;;;;;;;;-144.99;100.00;52629.50;5026142;28;20351;-70
2022/02/09 12:52:39;;;;;;;;;;;;;;;-144.99;100.00;52617.28;5023848;28;20023;-71
2022/02/09 12:55:07;;;;;;;;;;;;;;;-144.99;100.00;52578.53;5023447;28;19974;-70
2022/02/09 12:57:34;;;;;;;;;;;;;;;-144.99;100.00;52596.88;5021695;28;20027;-71
2022/02/09 13:00:00;;;;;;;;;;;;;;;-144.99;100.00;52586.69;5038152;28;19982;-70
2022/02/09 13:02:40;;;;;;;;;;;;;;;-144.99;100.00;52629.50;5042756;28;19989;-74
2022/02/09 13:05:08;;;;;;;;;;;;;;;-144.99;100.00;52562.25;5029492;28;19986;-69
2022/02/09 13:07:35;;;;;;;;;;;;;;;-144.99;100.00;52609.13;5037875;28;19975;-69
2022/02/09 13:10:01;;;;;;;;;;;;;;;-144.99;100.00;52627.47;5031579;28;19977;-69
2022/02/09 13:12:29;;;;;;;;;;;;;;;-144.99;100.00;52582.63;5016047;28;19983;-69
2022/02/09 13:15:01;;;;;;;;;;;;;;;-144.99;100.00;52578.53;5017442;28;19977;-69
2022/02/09 13:17:51;;;;;;;;;;;;;;;-144.99;100.00;52582.63;5009433;28;20045;-69
2022/02/09 13:20:47;;;;;;;;;;;;;;;-144.99;100.00;52590.78;5004801;28;19979;-69
2022/02/09 14:11:29;;;;;;;;;;;;;;;-144.99;100.00;52619.31;5019987;28;20066;-69
2022/02/09 14:14:13;;;;;;;;;;;;;;;-144.99;100.00;52570.38;5021181;28;19995;-69
2022/02/09 14:16:58;;;;;;;;;;;;;;;-144.99;100.00;52603.00;5018737;28;19994;-69
2022/02/09 14:53:04;;;;;;;;;;;;;;;-144.99;100.00;52615.25;5013439;28;19990;-69
2022/02/09 14:55:57;;;;;;;;;;;;;;;-144.99;100.00;52578.53;5008230;28;20070;-69
2022/02/09 14:58:40;;;;;;;;;;;;;;;-144.99;100.00;52574.47;4992293;28;20052;-69
2022/02/09 15:01:12;;;;;;;;;;;;;;;-144.99;100.00;52619.31;4997082;28;19953;-69
2022/02/09 15:06:47;;;;;;;;;;;;;;;-144.99;100.00;52611.16;4999014;28;19969;-69
2022/02/09 15:09:17;;;;;;;;;;;;;;;-144.99;100.00;52605.03;4998856;28;20497;-69
2022/02/09 15:11:59;;;;;;;;;;;;;;;-144.99;100.00;52611.16;5005317;28;21137;-69
2022/02/09 15:14:31;;;;;;;;;;;;;;;-144.99;100.00;52619.31;5002110;28;20003;-69
2022/02/09 15:17:20;;;;;;;;;;;;;;;-144.99;100.00;52615.25;4999757;28;20342;-68
2022/02/09 15:20:10;;;;;;;;;;;;;;;-144.99;100.00;52554.09;5007503;28;20045;-68
2022/02/09 15:22:41;;;;;;;;;;;;;;;-144.99;100.00;52590.78;5002825;28;19979;-68
2022/02/09 15:25:14;;;;;;;;;;;;;;;-144.99;100.00;52574.47;5000017;28;19958;-67
2022/02/09 15:27:41;;;;;;;;;;;;;;;-144.99;100.00;52576.50;5001351;28;20491;-69
2022/02/09 15:30:07;;;;;;;;;;;;;;;-144.99;100.00;52582.63;4995758;28;19953;-69
2022/02/09 15:32:39;;;;;;;;;;;;;;;-144.99;100.00;52625.44;5000866;28;20435;-69
2022/02/09 15:35:13;;;;;;;;;;;;;;;-144.99;100.00;52619.31;4994295;28;20047;-69
2022/02/09 15:37:46;;;;;;;;;;;;;;;-144.99;100.00;52578.53;5017996;28;19980;-69
2022/02/09 15:40:24;;;;;;;;;;;;;;;-144.99;100.00;52598.94;5020788;28;20023;-68
2022/02/09 15:43:10;;;;;;;;;;;;;;;-144.99;100.00;52586.69;5013826;28;20559;-69
2022/02/09 15:56:48;;;;;;;;;;;;;;;-144.99;100.00;52611.16;4997299;28;20084;-68
2022/02/09 16:10:30;;;;;;;;;;;;;;;-144.99;100.00;52582.63;5004127;28;19970;-69
2022/02/09 16:24:15;;;;;;;;;;;;;;;-144.99;100.00;52574.47;5088588;27;20432;-69
2022/02/09 16:38:06;;;;;;;;;;;;;;;-144.99;100.00;52582.63;5085740;28;20425;-69
2022/02/09 16:48:52;;;;;;;;;;;;;;;-144.99;100.00;52639.69;5060273;28;20001;-64
2022/02/09 16:51:21;;;;;;;;;;;;;;;-144.99;100.00;52576.50;5057060;28;20010;-64
2022/02/09 16:53:57;;;;;;;;;;;;;;;-144.99;100.00;52605.03;5055593;28;19994;-65
2022/02/09 16:56:55;;;;;;;;;;;;;;;-144.99;100.00;52582.63;5053305;28;19967;-64
2022/02/09 17:21:12;;;;;;;;;;;;;;;-144.99;100.00;52594.84;5042483;28;19956;-64
2022/02/09 17:23:41;;;;;;;;;;;;;;;-144.99;100.00;52627.47;5040430;28;20419;-66
2022/02/09 17:26:12;;;;;;;;;;;;;;;-144.99;100.00;52627.47;5046915;28;20050;-65
2022/02/09 17:28:40;;;;;;;;;;;;;;;-144.99;100.00;52658.03;5049003;28;20055;-64
2022/02/09 17:31:23;;;;;;;;;;;;;;;-144.99;100.00;52611.16;5051221;28;20421;-66
2022/02/09 17:34:15;;;;;;;;;;;;;;;-144.99;100.00;52603.00;5044006;28;20001;-65
2022/02/09 17:37:08;;;;;;;;;;;;;;;-144.99;100.00;52613.19;5034158;28;19970;-63
2022/02/09 17:53:25;;;;;;;;;;;;;;;-144.99;100.00;52676.38;5017961;28;20026;-65
2022/02/09 17:56:01;;;;;;;;;;;;;;;-144.99;100.00;52613.19;5036612;28;19955;-64
2022/02/09 17:58:30;;;;;;;;;;;;;;;-144.99;100.00;52594.84;5026416;28;20414;-61
2022/02/09 18:00:58;;;;;;;;;;;;;;;-144.99;100.00;52586.69;5035875;28;19958;-61
2022/02/09 18:03:25;;;;;;;;;;;;;;;-144.99;100.00;52611.16;5028115;28;19997;-59
2022/02/09 18:05:53;;;;;;;;;;;;;;;-144.99;100.00;52574.47;5027799;28;20413;-58
2022/02/09 18:08:25;;;;;;;;;;;;;;;-144.99;100.00;52598.94;5027742;28;19929;-60
2022/02/09 18:11:05;;;;;;;;;;;;;;;-144.99;100.00;52607.09;5016547;28;19964;-58
2022/02/09 18:28:00;;;;;;;;;;;;;;;-144.99;100.00;52590.78;5028642;28;20000;-59
2022/02/09 18:30:35;;;;;;;;;;;;;;;-144.99;100.00;52619.31;5025728;28;20331;-59
2022/02/09 18:33:24;;;;;;;;;;;;;;;-144.99;100.00;52582.63;5027173;28;19972;-60
2022/02/09 18:39:13;;;;;;;;;;;;;;;-144.99;100.00;52635.63;5025493;28;19953;-61
2022/02/09 18:44:32;;;;;;;;;;;;;;;-144.99;100.00;52609.13;4986656;28;20047;-59
2022/02/09 18:47:12;;;;;;;;;;;;;;;-144.99;100.00;52594.84;5028910;28;20018;-59
2022/02/09 19:03:37;;;;;;;;;;;;;;;-144.99;100.00;52609.13;5015849;28;19989;-61
2022/02/09 19:06:16;;;;;;;;;;;;;;;-144.99;100.00;52609.13;5028524;28;20416;-57
2022/02/09 19:14:29;;;;;;;;;;;;;;;-144.99;100.00;52603.00;4989772;28;20024;-59
2022/02/09 19:17:00;;;;;;;;;;;;;;;-144.99;100.00;52605.03;5028090;28;19953;-59
2022/02/09 19:19:50;;;;;;;;;;;;;;;-144.99;100.00;52619.31;5028001;28;20435;-61
2022/02/09 19:30:51;;;;;;;;;;;;;;;-144.99;100.00;52605.03;5105060;27;20429;-61
2022/02/09 19:47:05;;;;;;;;;;;;;;;-144.99;100.00;52647.84;5079684;28;20252;-60
2022/02/09 19:49:45;;;;;;;;;;;;;;;-144.99;100.00;52578.53;5080441;28;19994;-59
2022/02/09 19:52:17;;;;;;;;;;;;;;;-144.99;100.00;52619.31;5082500;28;19973;-60
2022/02/09 19:55:00;;;;;;;;;;;;;;;-144.99;100.00;52621.34;5083024;28;19988;-61
2022/02/09 19:57:26;;;;;;;;;;;;;;;-144.99;100.00;52598.94;5074697;28;20327;-59
2022/02/09 19:59:54;;;;;;;;;;;;;;;-144.99;100.00;52619.31;5084720;28;19987;-59
2022/02/09 20:02:25;;;;;;;;;;;;;;;-144.99;100.00;52643.78;5084550;28;19977;-60
2022/02/09 20:04:55;;;;;;;;;;;;;;;-144.99;100.00;52607.09;5084354;28;19978;-59
2022/02/09 20:07:22;;;;;;;;;;;;;;;-144.99;100.00;52611.16;5084156;28;20066;-59
2022/02/09 20:09:48;;;;;;;;;;;;;;;-144.99;100.00;52629.50;5078899;28;19994;-61
2022/02/09 20:12:15;;;;;;;;;;;;;;;-144.99;100.00;52635.63;5101483;28;19983;-60
2022/02/09 20:14:46;;;;;;;;;;;;;;;-144.99;100.00;52623.38;5083410;28;20004;-59
2022/02/09 20:17:12;;;;;;;;;;;;;;;-144.99;100.00;52611.16;5084121;28;20074;-60
2022/02/09 20:19:42;;;;;;;;;;;;;;;-144.99;100.00;52643.78;5083449;28;20434;-59
2022/02/09 20:22:10;;;;;;;;;;;;;;;-144.99;100.00;52623.38;5084037;28;19956;-61
2022/02/09 20:24:42;;;;;;;;;;;;;;;-144.99;100.00;52635.63;5082338;28;20093;-58
2022/02/09 20:27:13;;;;;;;;;;;;;;;-144.99;100.00;52658.03;5096552;28;19968;-60
2022/02/09 20:29:40;;;;;;;;;;;;;;;-144.99;100.00;52625.44;5115767;27;20051;-60
2022/02/09 20:32:16;;;;;;;;;;;;;;;-144.99;100.00;52639.69;5124439;27;19989;-59
2022/02/09 20:34:51;;;;;;;;;;;;;;;-144.99;100.00;52639.69;5107960;28;19974;-59
2022/02/09 20:37:18;;;;;;;;;;;;;;;-144.99;100.00;52627.47;5098457;28;19979;-60
2022/02/09 20:39:55;;;;;;;;;;;;;;;-144.99;100.00;52680.47;5103399;28;20457;-60
2022/02/09 20:42:23;;;;;;;;;;;;;;;-144.99;100.00;52627.47;5091072;28;20377;-60
2022/02/09 20:44:54;;;;;;;;;;;;;;;-144.99;100.00;52641.72;5085895;28;19978;-60
2022/02/09 20:47:21;;;;;;;;;;;;;;;-144.99;100.00;52643.78;5089896;28;20025;-61
2022/02/09 20:49:48;;;;;;;;;;;;;;;-144.99;100.00;52619.31;5092966;28;20469;-60
2022/02/09 20:52:16;;;;;;;;;;;;;;;-144.99;100.00;52647.84;5087425;28;19974;-60
2022/02/09 20:54:42;;;;;;;;;;;;;;;-144.99;100.00;52643.78;5089923;28;20364;-60
2022/02/09 20:57:08;;;;;;;;;;;;;;;-144.99;100.00;52631.53;5090386;28;19985;-61
2022/02/09 20:59:41;;;;;;;;;;;;;;;-144.99;100.00;52619.31;5089553;28;20036;-59
2022/02/09 21:02:20;;;;;;;;;;;;;;;-144.99;100.00;52613.19;5088972;28;19969;-59
2022/02/09 21:04:49;;;;;;;;;;;;;;;-144.99;100.00;52631.53;5086623;28;19985;-56
2022/02/09 21:07:25;;;;;;;;;;;;;;;-144.99;100.00;52664.16;5093376;28;20749;-58
2022/02/09 21:09:58;;;;;;;;;;;;;;;-144.99;100.00;52619.31;5097515;28;20329;-58
2022/02/09 21:12:33;;;;;;;;;;;;;;;-144.99;100.00;52627.47;5089444;28;20452;-58
2022/02/09 21:15:25;;;;;;;;;;;;;;;-144.99;100.00;52623.38;5088830;28;19980;-58
2022/02/09 21:18:11;;;;;;;;;;;;;;;-144.99;100.00;52668.22;5089723;28;20612;-58
2022/02/09 21:20:53;;;;;;;;;;;;;;;-144.99;100.00;52647.84;5088776;28;20104;-60